This is the latest recevied weather packets stored in our database for station/object K7PMV-13. If no packets are shown the sender has not sent any weather packets the latest 10 day(s).
| Time | Temp. | Humidity | Pressure | Rain* | Wind** | Luminosity | Snow |
|---|---|---|---|---|---|---|---|
| 1777720093 | 18.89° C | 40% | 1007.9 hPa | 0 mm | - | 0 W/m² | - |
| 1777719791 | 18.89° C | 39% | 1007.8 hPa | 0 mm | - | 0 W/m² | - |
| 1777719488 | 18.89° C | 39% | 1007.9 hPa | 0 mm | - | 0 W/m² | - |
| 1777719179 | 18.89° C | 39% | 1007.8 hPa | 0 mm | - | 0 W/m² | - |
| 1777718869 | 18.89° C | 39% | 1007.8 hPa | 0 mm | - | 0 W/m² | - |
| 1777718566 | 19.44° C | 39% | 1007.8 hPa | 0 mm | - | 0 W/m² | - |
| 1777718263 | 19.44° C | 38% | 1007.8 hPa | 0 mm | - | 0 W/m² | - |
| 1777717961 | 19.44° C | 38% | 1007.5 hPa | 0 mm | - | 0 W/m² | - |
| 1777717658 | 20° C | 39% | 1007.5 hPa | 0 mm | - | 0 W/m² | - |
| 1777717355 | 20.56° C | 37% | 1007.5 hPa | 0 mm | - | 0 W/m² | - |
| 1777717053 | 21.11° C | 33% | 1007.5 hPa | 0 mm | - | 0 W/m² | - |
| 1777716750 | 21.67° C | 30% | 1007.4 hPa | 0 mm | - | 0 W/m² | - |
| 1777716447 | 21.11° C | 31% | 1007.4 hPa | 0 mm | - | 0 W/m² | - |
| 1777716145 | 20.56° C | 33% | 1007.3 hPa | 0 mm | - | 0 W/m² | - |
| 1777715842 | 20° C | 35% | 1007.3 hPa | 0 mm | - | 0 W/m² | - |
| 1777715532 | 19.44° C | 36% | 1007.3 hPa | 0 mm | - | 0 W/m² | - |
| 1777715230 | 19.44° C | 37% | 1007.2 hPa | 0 mm | - | 0 W/m² | - |
| 1777714927 | 19.44° C | 38% | 1007.2 hPa | 0 mm | - | 0 W/m² | - |
| 1777714467 | 19.44° C | 37% | 1007.2 hPa | 0 mm | - | 0 W/m² | - |
| 1777714164 | 20° C | 37% | 1007.2 hPa | 0 mm | - | 0 W/m² | - |
| 1777713861 | 20° C | 36% | 1007.2 hPa | 0 mm | - | 0 W/m² | - |
| 1777713559 | 20.56° C | 35% | 1007.1 hPa | 0 mm | - | 0 W/m² | - |
| 1777713256 | 21.11° C | 34% | 1007.1 hPa | 0 mm | - | 0 W/m² | - |
| 1777712954 | 21.11° C | 34% | 1007 hPa | 0 mm | - | 0 W/m² | - |
| 1777712644 | 21.11° C | 34% | 1007 hPa | 0 mm | - | 0 W/m² | - |
* Rain latest hour (hover to see other rain measurements)
** Current wind speed in m/s (hover to see current wind gust speed)